createdAt,value
2022-10-17T00:33:48.169Z,13.30
2022-10-17T00:36:31.661Z,13.30
2022-10-17T00:39:04.901Z,13.30
2022-10-17T00:45:06.008Z,13.20
2022-10-17T00:47:45.676Z,13.10
2022-10-17T00:50:16.908Z,13.00
2022-10-17T00:55:29.840Z,13.00
2022-10-17T00:58:08.342Z,13.00
2022-10-17T01:05:50.644Z,13.10
2022-10-17T01:08:42.577Z,13.00
2022-10-17T01:11:36.877Z,13.10
2022-10-17T01:14:18.500Z,13.10
2022-10-17T01:16:58.672Z,13.10
2022-10-17T01:20:01.112Z,13.10
2022-10-17T01:22:42.329Z,13.20
2022-10-17T01:25:37.286Z,13.10
2022-10-17T01:28:40.146Z,13.10
2022-10-17T01:31:32.593Z,13.90
2022-10-17T01:36:59.747Z,13.00
2022-10-17T01:39:45.320Z,13.10
2022-10-17T01:42:31.607Z,13.00
2022-10-17T01:45:15.305Z,13.00
2022-10-17T01:47:58.726Z,12.90
2022-10-17T01:53:49.317Z,12.90
2022-10-17T01:56:38.061Z,12.90
2022-10-17T02:02:12.148Z,12.90
2022-10-17T02:07:44.019Z,12.80
2022-10-17T02:10:31.889Z,12.90
2022-10-17T02:13:17.402Z,12.80
2022-10-17T02:16:04.068Z,12.80
2022-10-17T02:19:01.089Z,12.90
2022-10-17T02:21:55.391Z,12.90
2022-10-17T02:24:37.608Z,12.70
2022-10-17T02:27:17.640Z,12.80
2022-10-17T02:30:01.517Z,12.80
2022-10-17T02:32:52.596Z,12.80
2022-10-17T02:35:30.462Z,12.80
2022-10-17T02:40:47.541Z,12.80
2022-10-17T02:48:45.707Z,12.70
2022-10-17T02:51:30.236Z,12.70
2022-10-17T02:54:14.903Z,12.80
2022-10-17T02:56:54.937Z,12.70
2022-10-17T02:59:37.959Z,12.80
2022-10-17T03:04:57.911Z,12.80
2022-10-17T03:28:54.516Z,13.10
2022-10-17T03:31:28.491Z,13.10
2022-10-17T03:37:09.809Z,13.40
2022-10-17T03:39:44.217Z,13.30
2022-10-17T03:42:28.306Z,13.50
2022-10-17T03:45:13.262Z,13.30
2022-10-17T04:06:24.081Z,13.10
2022-10-17T04:09:01.167Z,13.10
2022-10-17T04:14:46.774Z,13.00
2022-10-17T04:17:21.564Z,12.90
2022-10-17T04:19:58.660Z,12.80
2022-10-17T04:22:36.698Z,12.80
2022-10-17T04:25:14.398Z,13.80
2022-10-17T04:27:44.992Z,12.60
2022-10-17T04:30:30.356Z,12.60
2022-10-17T04:33:03.883Z,12.50
2022-10-17T04:35:36.687Z,12.50
2022-10-17T04:38:14.219Z,14.20
2022-10-17T04:40:54.513Z,12.40
2022-10-17T04:46:07.854Z,12.30
2022-10-17T04:48:49.089Z,12.20
2022-10-17T04:51:32.472Z,12.20
2022-10-17T04:54:22.894Z,12.20
2022-10-17T04:57:02.476Z,12.20
2022-10-17T04:59:54.245Z,12.20
2022-10-17T05:02:44.486Z,12.20
2022-10-17T05:05:34.498Z,12.10
2022-10-17T05:08:27.405Z,12.00
2022-10-17T05:13:38.562Z,12.20
2022-10-17T05:18:55.197Z,11.30
2022-10-17T05:24:29.994Z,12.20
2022-10-17T05:27:22.884Z,12.30
2022-10-17T05:30:02.419Z,12.30
2022-10-17T05:32:35.142Z,12.40
2022-10-17T05:35:23.157Z,12.60
2022-10-17T05:38:08.897Z,12.50
2022-10-17T05:40:50.513Z,12.50
2022-10-17T05:48:23.781Z,12.90
2022-10-17T05:51:09.910Z,12.90
2022-10-17T05:53:46.903Z,12.90
2022-10-17T05:56:21.280Z,13.40
2022-10-17T05:58:57.384Z,12.80
2022-10-17T06:01:30.567Z,12.70
2022-10-17T06:04:00.952Z,12.60
2022-10-17T06:06:37.714Z,12.70
2022-10-17T06:11:50.059Z,12.60
2022-10-17T06:14:29.262Z,12.60
2022-10-17T06:16:59.793Z,12.60
2022-10-17T06:19:32.951Z,12.20
2022-10-17T06:22:03.888Z,12.80
2022-10-17T06:24:32.948Z,12.60
2022-10-17T06:27:02.499Z,12.30
2022-10-17T06:29:35.382Z,12.60
2022-10-17T06:32:05.176Z,12.60
2022-10-17T06:34:36.184Z,12.80
2022-10-17T06:37:07.314Z,12.50
2022-10-17T06:39:37.018Z,12.60
2022-10-17T06:42:09.792Z,12.80
2022-10-17T06:44:42.670Z,12.50
2022-10-17T06:47:12.710Z,12.60
2022-10-17T06:49:42.759Z,12.70
2022-10-17T06:52:24.335Z,12.80
2022-10-17T06:54:53.288Z,12.80
2022-10-17T06:57:22.282Z,13.00
2022-10-17T06:59:50.431Z,13.00
2022-10-17T07:02:21.541Z,13.10
2022-10-17T07:04:53.210Z,13.10
2022-10-17T07:07:23.942Z,13.20
2022-10-17T07:09:53.164Z,13.40
2022-10-17T07:12:22.062Z,13.40
2022-10-17T07:14:52.980Z,13.40
2022-10-17T07:17:24.964Z,13.50
2022-10-17T07:19:54.591Z,13.60
2022-10-17T07:22:25.380Z,13.80
2022-10-17T07:25:00.013Z,13.70
2022-10-17T07:27:29.633Z,13.70
2022-10-17T07:29:59.917Z,13.90
2022-10-17T07:32:32.087Z,13.90
2022-10-17T07:35:01.111Z,14.00
2022-10-17T07:37:32.031Z,14.20
2022-10-17T07:40:01.156Z,14.30
2022-10-17T07:42:29.677Z,14.30
2022-10-17T07:45:01.534Z,14.50
2022-10-17T07:47:38.019Z,14.60
2022-10-17T07:50:07.034Z,14.80
2022-10-17T07:52:37.325Z,14.90
2022-10-17T07:55:09.736Z,15.00
2022-10-17T07:57:45.268Z,15.20
2022-10-17T08:00:18.753Z,15.70
2022-10-17T08:02:47.213Z,15.30
2022-10-17T08:05:18.417Z,15.50
2022-10-17T08:07:48.805Z,15.50
2022-10-17T08:10:19.082Z,15.60
2022-10-17T08:12:51.490Z,15.70
2022-10-17T08:15:23.165Z,15.90
2022-10-17T08:17:55.588Z,16.00
2022-10-17T08:20:25.531Z,16.10
2022-10-17T08:22:58.852Z,16.30
2022-10-17T08:25:40.034Z,16.40
2022-10-17T08:28:12.813Z,16.40
2022-10-17T08:30:43.706Z,17.00
2022-10-17T08:33:12.812Z,16.70
2022-10-17T08:35:43.942Z,16.50
2022-10-17T08:38:16.010Z,17.00
2022-10-17T08:40:51.400Z,17.10
2022-10-17T08:43:35.607Z,17.20
2022-10-17T08:46:09.558Z,17.60
2022-10-17T08:48:46.327Z,17.10
2022-10-17T08:51:20.496Z,17.50
2022-10-17T08:54:08.538Z,17.60
2022-10-17T08:56:48.448Z,17.80
2022-10-17T08:59:21.864Z,17.70
2022-10-17T09:02:00.041Z,17.80
2022-10-17T09:04:52.969Z,18.00
2022-10-17T09:07:28.883Z,18.00
2022-10-17T09:10:06.708Z,18.00
2022-10-17T09:12:45.197Z,18.20
2022-10-17T09:15:39.218Z,18.20
2022-10-17T09:18:21.106Z,18.30
2022-10-17T09:20:54.612Z,18.10
2022-10-17T09:23:29.692Z,18.40
2022-10-17T09:26:02.105Z,18.70
2022-10-17T09:28:36.611Z,18.60
2022-10-17T09:31:13.058Z,18.70
2022-10-17T09:33:53.803Z,18.80
2022-10-17T09:36:27.135Z,19.50
2022-10-17T09:39:01.843Z,18.90
2022-10-17T09:41:46.860Z,19.10
2022-10-17T09:44:23.403Z,19.30
2022-10-17T09:47:22.945Z,19.40
2022-10-17T09:49:53.916Z,19.60
2022-10-17T09:52:30.051Z,19.80
2022-10-17T09:55:03.210Z,19.90
2022-10-17T09:57:52.313Z,20.00
2022-10-17T10:00:30.678Z,20.00
2022-10-17T10:03:22.216Z,20.10
2022-10-17T10:06:05.151Z,20.10
2022-10-17T10:08:39.921Z,20.30
2022-10-17T10:11:14.407Z,20.40
2022-10-17T10:13:56.522Z,20.60
2022-10-17T10:16:36.205Z,20.60
2022-10-17T10:19:24.204Z,20.70
2022-10-17T10:21:59.812Z,20.80
2022-10-17T10:24:31.398Z,20.80
2022-10-17T10:27:04.732Z,21.00
2022-10-17T10:29:41.830Z,21.20
2022-10-17T10:32:21.914Z,21.30
2022-10-17T10:34:54.479Z,21.20
2022-10-17T10:37:24.965Z,21.20
2022-10-17T10:39:58.148Z,21.20
2022-10-17T10:42:29.888Z,21.30
2022-10-17T10:45:19.090Z,21.40
2022-10-17T10:48:03.668Z,21.50
2022-10-17T10:50:42.994Z,21.90
2022-10-17T10:53:34.941Z,21.70
2022-10-17T10:56:18.135Z,21.90
2022-10-17T10:59:01.948Z,21.90
2022-10-17T11:01:39.902Z,21.60
2022-10-17T11:04:22.013Z,21.60
2022-10-17T11:06:58.969Z,21.80
2022-10-17T11:09:36.609Z,22.00
2022-10-17T11:12:10.440Z,22.10
2022-10-17T11:14:50.813Z,23.00
2022-10-17T11:17:33.666Z,22.40
2022-10-17T11:20:18.997Z,22.50
2022-10-17T11:22:52.908Z,22.50
2022-10-17T11:25:35.403Z,22.50
2022-10-17T11:28:08.164Z,22.70
2022-10-17T11:33:26.612Z,22.90
2022-10-17T11:35:59.348Z,23.00
2022-10-17T11:38:41.072Z,23.20
2022-10-17T11:41:13.861Z,23.20
2022-10-17T11:43:44.084Z,23.30
2022-10-17T11:46:17.246Z,23.40
2022-10-17T11:49:02.756Z,23.60
2022-10-17T11:54:27.256Z,23.70
2022-10-17T11:57:10.724Z,23.80
2022-10-17T12:00:06.275Z,23.80
2022-10-17T12:02:43.372Z,23.90
2022-10-17T12:05:24.043Z,23.90
2022-10-17T12:07:59.935Z,24.10
2022-10-17T12:10:42.243Z,24.20
2022-10-17T12:13:49.135Z,24.20
2022-10-17T12:16:45.696Z,24.30
2022-10-17T12:19:30.989Z,24.40
2022-10-17T12:22:07.253Z,24.50
2022-10-17T12:24:43.479Z,24.00
2022-10-17T12:27:55.808Z,24.50
2022-10-17T12:30:30.008Z,24.50
2022-10-17T12:33:12.804Z,24.70
2022-10-17T12:35:44.339Z,24.80
2022-10-17T12:38:23.493Z,24.80
2022-10-17T12:40:56.564Z,24.90
2022-10-17T12:43:58.152Z,25.00
2022-10-17T12:46:52.082Z,25.10
2022-10-17T12:49:41.675Z,25.10
2022-10-17T12:52:43.305Z,24.90
2022-10-17T12:55:18.973Z,24.70
2022-10-17T12:57:57.592Z,24.70
2022-10-17T13:00:49.830Z,24.80
2022-10-17T13:03:32.012Z,24.90
2022-10-17T13:06:05.132Z,25.00
2022-10-17T13:08:37.472Z,25.20
2022-10-17T13:11:10.501Z,25.20
2022-10-17T13:13:43.380Z,25.20
2022-10-17T13:16:29.344Z,25.40
2022-10-17T13:18:59.491Z,25.60
2022-10-17T13:21:28.815Z,25.60
2022-10-17T13:23:57.453Z,25.50
2022-10-17T13:26:29.333Z,25.50
2022-10-17T13:29:07.173Z,25.60
2022-10-17T13:31:37.290Z,25.80
2022-10-17T13:34:07.955Z,25.80
2022-10-17T13:36:36.857Z,25.80
2022-10-17T13:39:12.417Z,25.80
2022-10-17T13:41:43.457Z,25.80
2022-10-17T13:44:16.115Z,25.80
2022-10-17T13:46:45.237Z,25.80
2022-10-17T13:49:22.172Z,25.90
2022-10-17T13:51:55.405Z,25.80
2022-10-17T13:54:36.144Z,25.70
2022-10-17T13:57:06.638Z,25.70
2022-10-17T13:59:42.243Z,25.40
2022-10-17T14:02:20.324Z,25.30
2022-10-17T14:05:15.683Z,25.40
2022-10-17T14:08:09.233Z,25.50
2022-10-17T14:10:34.235Z,25.20
2022-10-17T14:13:06.433Z,25.40
2022-10-17T14:15:37.498Z,25.30
2022-10-17T14:18:08.262Z,25.30
2022-10-17T14:23:34.828Z,25.10
2022-10-17T14:26:10.046Z,25.10
2022-10-17T14:28:40.391Z,25.00
2022-10-17T14:31:17.455Z,24.90
2022-10-17T14:33:50.678Z,24.50
2022-10-17T14:36:22.503Z,24.30
2022-10-17T14:38:52.948Z,24.20
2022-10-17T14:44:28.556Z,24.30
2022-10-17T14:47:00.212Z,24.30
2022-10-17T14:49:38.275Z,24.40
2022-10-17T14:52:28.701Z,24.50
2022-10-17T14:54:58.953Z,24.50
2022-10-17T14:57:43.434Z,24.50
2022-10-17T15:00:19.386Z,24.50
2022-10-17T15:02:49.443Z,24.50
2022-10-17T15:05:19.548Z,24.20
2022-10-17T15:07:47.759Z,23.80
2022-10-17T15:10:34.288Z,23.90
2022-10-17T15:16:04.213Z,23.90
2022-10-17T15:18:39.850Z,24.10
2022-10-17T15:21:38.468Z,24.40
2022-10-17T15:24:20.154Z,24.50
2022-10-17T15:26:50.957Z,25.00
2022-10-17T15:29:22.218Z,25.40
2022-10-17T15:31:52.689Z,25.70
2022-10-17T15:34:25.944Z,25.60
2022-10-17T15:36:55.554Z,25.40
2022-10-17T15:39:30.375Z,25.20
2022-10-17T15:42:03.472Z,25.00
2022-10-17T15:44:35.564Z,24.60
2022-10-17T15:47:17.431Z,24.40
2022-10-17T15:49:53.672Z,23.70
2022-10-17T15:52:30.715Z,23.90
2022-10-17T15:55:06.147Z,23.60
2022-10-17T15:57:41.381Z,23.40
2022-10-17T16:00:17.391Z,23.20
2022-10-17T16:02:49.502Z,22.90
2022-10-17T16:05:28.319Z,22.80
2022-10-17T16:08:02.079Z,22.80
2022-10-17T16:10:30.326Z,22.50
2022-10-17T16:13:02.020Z,22.10
2022-10-17T16:15:31.453Z,21.00
2022-10-17T16:18:06.612Z,22.20
2022-10-17T16:20:38.831Z,22.10
2022-10-17T16:23:08.897Z,21.90
2022-10-17T16:25:40.493Z,21.30
2022-10-17T16:28:09.637Z,21.60
2022-10-17T16:30:46.498Z,21.60
2022-10-17T16:33:16.965Z,21.40
2022-10-17T16:35:46.959Z,21.20
2022-10-17T16:38:16.830Z,21.30
2022-10-17T16:40:55.789Z,20.90
2022-10-17T16:43:26.490Z,20.90
2022-10-17T16:46:05.999Z,20.70
2022-10-17T16:48:48.541Z,20.40
2022-10-17T16:51:30.305Z,20.50
2022-10-17T16:54:00.408Z,20.30
2022-10-17T16:56:36.192Z,19.90
2022-10-17T17:02:16.352Z,20.10
2022-10-17T17:05:15.400Z,19.60
2022-10-17T17:10:37.407Z,19.80
2022-10-17T17:13:21.140Z,19.80
2022-10-17T17:16:12.812Z,19.80
2022-10-17T17:18:47.581Z,19.70
2022-10-17T17:21:33.760Z,19.60
2022-10-17T17:24:11.019Z,19.70
2022-10-17T17:26:49.310Z,19.10
2022-10-17T17:29:23.684Z,19.70
2022-10-17T17:32:06.250Z,19.40
2022-10-17T17:34:39.180Z,19.70
2022-10-17T17:37:19.755Z,19.70
2022-10-17T17:39:57.371Z,20.00
2022-10-17T17:42:28.369Z,19.50
2022-10-17T17:48:20.168Z,19.40
2022-10-17T17:50:59.264Z,19.40
2022-10-17T17:53:38.323Z,19.30
2022-10-17T17:56:19.913Z,19.30
2022-10-17T17:59:10.901Z,19.20
2022-10-17T18:01:52.568Z,19.10
2022-10-17T18:04:36.302Z,19.20
2022-10-17T18:07:27.737Z,19.20
2022-10-17T18:12:44.725Z,19.00
2022-10-17T18:15:33.121Z,18.80
2022-10-17T18:18:13.284Z,18.60
2022-10-17T18:21:02.280Z,18.90
2022-10-17T18:23:44.959Z,18.90
2022-10-17T18:29:14.155Z,18.90
2022-10-17T18:32:17.917Z,18.80
2022-10-17T18:34:52.948Z,18.50
2022-10-17T18:40:11.638Z,18.80
2022-10-17T18:42:50.148Z,18.70
2022-10-17T18:45:24.841Z,18.70
2022-10-17T18:48:01.514Z,18.20
2022-10-17T18:50:45.436Z,18.70
2022-10-17T18:53:15.214Z,18.40
2022-10-17T18:58:24.791Z,18.50
2022-10-17T19:00:58.158Z,18.40
2022-10-17T19:03:45.779Z,18.40
2022-10-17T19:06:34.270Z,18.20
2022-10-17T19:09:15.657Z,18.10
2022-10-17T19:12:05.121Z,18.30
2022-10-17T19:14:50.113Z,18.10
2022-10-17T19:19:59.336Z,17.90
2022-10-17T19:25:33.105Z,17.60
2022-10-17T19:28:11.920Z,17.80
2022-10-17T19:30:54.501Z,17.50
2022-10-17T19:33:43.351Z,17.70
2022-10-17T19:36:19.291Z,17.70
2022-10-17T19:38:54.951Z,17.70
2022-10-17T19:44:02.129Z,17.60
2022-10-17T19:46:44.777Z,17.80
2022-10-17T19:49:21.599Z,17.50
2022-10-17T19:52:06.117Z,18.00
2022-10-17T19:54:48.819Z,17.40
2022-10-17T19:57:28.392Z,17.50
2022-10-17T19:59:58.665Z,17.00
2022-10-17T20:02:34.016Z,17.40
2022-10-17T20:05:18.397Z,17.10
2022-10-17T20:07:50.438Z,17.50
2022-10-17T20:10:23.361Z,17.30
2022-10-17T20:13:01.132Z,17.30
2022-10-17T20:15:33.300Z,17.30
2022-10-17T20:18:16.962Z,17.20
2022-10-17T20:23:24.067Z,17.10
2022-10-17T20:26:37.141Z,17.50
2022-10-17T20:29:20.707Z,17.10
2022-10-17T20:31:59.646Z,17.50
2022-10-17T20:34:47.331Z,17.30
2022-10-17T20:37:19.697Z,17.30
2022-10-17T20:40:29.542Z,17.00
2022-10-17T20:42:53.822Z,17.20
2022-10-17T20:45:43.798Z,17.00
2022-10-17T20:48:29.437Z,16.90
2022-10-17T20:50:59.863Z,17.00
2022-10-17T20:53:37.083Z,16.80
2022-10-17T20:56:39.489Z,17.40
2022-10-17T20:59:20.809Z,16.90
2022-10-17T21:01:54.510Z,16.70
2022-10-17T21:04:47.028Z,17.00
2022-10-17T21:07:41.345Z,16.70
2022-10-17T21:10:34.552Z,16.60
2022-10-17T21:13:21.711Z,16.50
2022-10-17T21:21:30.164Z,16.40
2022-10-17T21:24:15.901Z,19.30
2022-10-17T21:26:55.637Z,16.30
2022-10-17T21:30:05.276Z,15.90
2022-10-17T21:41:01.895Z,16.30
2022-10-17T21:43:53.651Z,16.30
2022-10-17T21:46:29.500Z,16.30
2022-10-17T21:49:14.163Z,16.20
2022-10-17T21:51:48.886Z,16.40
2022-10-17T21:54:24.214Z,16.40
2022-10-17T21:59:45.944Z,16.40
2022-10-17T22:02:23.046Z,16.50
2022-10-17T22:04:59.231Z,16.50
2022-10-17T22:07:39.476Z,16.40
2022-10-17T22:10:14.207Z,16.50
2022-10-17T22:12:53.729Z,16.50
2022-10-17T22:15:42.122Z,16.10
2022-10-17T22:18:27.505Z,16.50
2022-10-17T22:21:05.521Z,16.10
2022-10-17T22:23:42.313Z,15.60
2022-10-17T22:26:18.395Z,16.50
2022-10-17T22:29:01.622Z,16.30
2022-10-17T22:31:37.723Z,16.30
2022-10-17T22:34:30.027Z,16.20
2022-10-17T22:37:04.619Z,16.80
2022-10-17T22:39:46.687Z,16.50
2022-10-17T22:42:26.777Z,16.50
2022-10-17T22:45:16.169Z,16.50
2022-10-17T22:47:55.240Z,16.70
2022-10-17T22:50:37.269Z,16.40
2022-10-17T22:53:16.829Z,16.50
2022-10-17T22:55:58.270Z,16.50
2022-10-17T23:01:20.593Z,16.40
2022-10-17T23:06:51.421Z,16.50
2022-10-17T23:09:31.103Z,16.40
2022-10-17T23:12:03.862Z,16.20
2022-10-17T23:14:37.838Z,16.90
2022-10-17T23:17:13.546Z,16.30
2022-10-17T23:20:04.906Z,16.30
2022-10-17T23:22:44.092Z,16.20
2022-10-17T23:25:17.693Z,16.80
2022-10-17T23:31:06.915Z,16.30
2022-10-17T23:37:07.312Z,16.20
2022-10-17T23:39:50.108Z,16.30
2022-10-17T23:42:39.374Z,16.20
2022-10-17T23:45:20.036Z,16.20
2022-10-17T23:47:59.586Z,15.90
2022-10-17T23:50:43.743Z,16.00
2022-10-17T23:53:15.550Z,16.30
2022-10-17T23:55:52.121Z,16.10
2022-10-17T23:58:30.335Z,16.10
